createdAt,value
2019-02-23T00:00:13.707Z,0
2019-02-23T00:01:13.778Z,0
2019-02-23T00:02:13.708Z,0
2019-02-23T00:03:13.778Z,0
2019-02-23T00:04:13.780Z,0
2019-02-23T00:05:13.748Z,0
2019-02-23T00:06:13.686Z,0
2019-02-23T00:07:13.758Z,0
2019-02-23T00:08:13.729Z,0
2019-02-23T00:09:13.732Z,0
2019-02-23T00:11:13.798Z,0
2019-02-23T00:12:13.746Z,0
2019-02-23T00:13:13.805Z,0
2019-02-23T00:14:13.745Z,0
2019-02-23T00:15:13.811Z,0
2019-02-23T00:16:13.745Z,0
2019-02-23T00:17:13.743Z,0
2019-02-23T00:18:13.808Z,0
2019-02-23T00:19:24.153Z,0
2019-02-23T00:20:13.743Z,0
2019-02-23T00:21:13.806Z,0
2019-02-23T00:22:13.740Z,0
2019-02-23T00:23:13.812Z,0
2019-02-23T00:24:13.732Z,0
2019-02-23T00:25:13.792Z,0
2019-02-23T00:26:13.732Z,0
2019-02-23T00:27:13.744Z,0
2019-02-23T00:28:13.815Z,0
2019-02-23T00:29:13.804Z,0
2019-02-23T00:30:13.738Z,0
2019-02-23T00:31:13.746Z,0
2019-02-23T00:32:13.794Z,0
2019-02-23T00:33:13.816Z,0
2019-02-23T00:34:13.795Z,0
2019-02-23T00:35:13.701Z,0
2019-02-23T00:36:13.787Z,0
2019-02-23T00:37:13.786Z,0
2019-02-23T00:38:13.770Z,0
2019-02-23T00:39:13.680Z,0
2019-02-23T00:40:13.708Z,0
2019-02-23T00:41:13.789Z,0
2019-02-23T00:42:13.735Z,0
2019-02-23T00:43:13.733Z,0
2019-02-23T00:44:13.802Z,0
2019-02-23T00:45:13.794Z,0
2019-02-23T00:46:13.739Z,0
2019-02-23T00:47:13.692Z,0
2019-02-23T00:48:13.735Z,0
2019-02-23T00:49:13.704Z,0
2019-02-23T00:50:13.690Z,0
2019-02-23T00:51:13.715Z,0
2019-02-23T00:52:13.813Z,0
2019-02-23T00:53:13.810Z,0
2019-02-23T00:54:13.763Z,0
2019-02-23T00:55:13.831Z,0
2019-02-23T00:56:13.751Z,0
2019-02-23T00:57:13.754Z,0
2019-02-23T00:58:13.825Z,0
2019-02-23T00:59:13.831Z,0
2019-02-23T01:00:13.771Z,0
2019-02-23T01:01:13.832Z,0
2019-02-23T01:02:13.838Z,0
2019-02-23T01:03:13.761Z,0
2019-02-23T01:04:13.839Z,0
2019-02-23T01:05:13.817Z,0
2019-02-23T01:06:13.813Z,0
2019-02-23T01:07:13.775Z,0
2019-02-23T01:08:13.809Z,0
2019-02-23T01:09:13.822Z,0
2019-02-23T01:10:13.810Z,0
2019-02-23T01:11:13.771Z,0
2019-02-23T01:12:13.731Z,0
2019-02-23T01:13:13.824Z,0
2019-02-23T01:14:13.711Z,0
2019-02-23T01:15:13.776Z,0
2019-02-23T01:16:13.764Z,0
2019-02-23T01:17:13.764Z,0
2019-02-23T01:18:13.830Z,0
2019-02-23T01:19:13.764Z,0
2019-02-23T01:20:13.776Z,0
2019-02-23T01:21:13.837Z,0
2019-02-23T01:22:13.767Z,0
2019-02-23T01:23:13.834Z,0
2019-02-23T01:24:13.834Z,0
2019-02-23T01:25:13.866Z,0
2019-02-23T01:26:13.841Z,0
2019-02-23T01:27:13.874Z,0
2019-02-23T01:28:13.740Z,0
2019-02-23T01:29:13.852Z,0
2019-02-23T01:30:13.805Z,0
2019-02-23T01:31:13.739Z,0
2019-02-23T01:32:13.820Z,0
2019-02-23T01:33:13.799Z,0
2019-02-23T01:34:13.752Z,0
2019-02-23T01:35:13.839Z,0
2019-02-23T01:36:13.790Z,0
2019-02-23T01:37:13.844Z,0
2019-02-23T01:38:13.749Z,0
2019-02-23T01:39:13.750Z,0
2019-02-23T01:40:13.863Z,0
2019-02-23T01:41:13.836Z,0
2019-02-23T01:42:13.773Z,0
2019-02-23T01:43:13.779Z,0
2019-02-23T01:44:13.848Z,0
2019-02-23T01:45:13.805Z,0
2019-02-23T01:46:13.794Z,0
2019-02-23T01:47:13.803Z,0
2019-02-23T01:48:13.810Z,0
2019-02-23T01:49:13.803Z,0
2019-02-23T01:50:13.868Z,0
2019-02-23T01:51:13.804Z,0
2019-02-23T01:52:13.807Z,0
2019-02-23T01:53:13.812Z,0
2019-02-23T01:54:13.867Z,0
2019-02-23T01:55:13.886Z,0
2019-02-23T01:56:13.797Z,0
2019-02-23T01:57:13.758Z,0
2019-02-23T01:58:13.787Z,0
2019-02-23T01:59:13.721Z,0
2019-02-23T02:00:13.820Z,0
2019-02-23T02:01:13.785Z,0
2019-02-23T02:02:13.767Z,0
2019-02-23T02:03:13.732Z,0
2019-02-23T02:04:13.729Z,0
2019-02-23T02:05:13.882Z,0
2019-02-23T02:06:13.826Z,0
2019-02-23T02:07:13.821Z,0
2019-02-23T02:08:13.892Z,0
2019-02-23T02:09:13.871Z,0
2019-02-23T02:10:13.889Z,0
2019-02-23T02:11:13.887Z,0
2019-02-23T02:12:13.865Z,0
2019-02-23T02:13:13.869Z,0
2019-02-23T02:14:13.906Z,0
2019-02-23T02:15:13.775Z,0
2019-02-23T02:16:13.773Z,0
2019-02-23T02:17:13.810Z,0
2019-02-23T02:18:13.862Z,0
2019-02-23T02:19:13.863Z,0
2019-02-23T02:20:13.827Z,0
2019-02-23T02:21:13.778Z,0
2019-02-23T02:22:13.786Z,0
2019-02-23T02:23:13.778Z,0
2019-02-23T02:24:13.811Z,0
2019-02-23T02:25:13.913Z,0
2019-02-23T02:26:13.901Z,0
2019-02-23T02:27:13.905Z,0
2019-02-23T02:28:13.910Z,0
2019-02-23T02:29:13.838Z,0
2019-02-23T02:30:13.855Z,0
2019-02-23T02:31:13.862Z,0
2019-02-23T02:32:13.903Z,0
2019-02-23T02:33:13.910Z,0
2019-02-23T02:34:13.933Z,0
2019-02-23T02:35:13.902Z,0
2019-02-23T02:36:13.812Z,0
2019-02-23T02:37:13.874Z,0
2019-02-23T02:38:13.757Z,0
2019-02-23T02:39:13.868Z,0
2019-02-23T02:40:13.763Z,0
2019-02-23T02:41:13.744Z,0
2019-02-23T02:42:13.841Z,0
2019-02-23T02:43:13.867Z,0
2019-02-23T02:44:13.875Z,0
2019-02-23T02:45:13.836Z,0
2019-02-23T02:46:13.895Z,0
2019-02-23T02:47:13.823Z,0
2019-02-23T02:48:13.894Z,0
2019-02-23T02:49:13.859Z,0
2019-02-23T02:50:24.003Z,0
2019-02-23T02:51:13.834Z,0
2019-02-23T02:52:13.900Z,0
2019-02-23T02:53:13.836Z,0
2019-02-23T02:54:13.901Z,0
2019-02-23T02:55:13.841Z,0
2019-02-23T02:56:13.838Z,0
2019-02-23T02:57:13.783Z,0
2019-02-23T02:58:13.833Z,0
2019-02-23T02:59:13.903Z,0
2019-02-23T03:00:13.841Z,0
2019-02-23T03:01:13.915Z,0
2019-02-23T03:02:13.974Z,0
2019-02-23T03:03:13.840Z,0
2019-02-23T03:04:13.908Z,0
2019-02-23T03:05:13.854Z,0
2019-02-23T03:06:13.844Z,0
2019-02-23T03:07:13.909Z,0
2019-02-23T03:08:13.848Z,0
2019-02-23T03:09:13.915Z,0
2019-02-23T03:10:13.855Z,0
2019-02-23T03:11:13.909Z,0
2019-02-23T03:12:13.913Z,0
2019-02-23T03:13:13.930Z,0
2019-02-23T03:14:13.846Z,0
2019-02-23T03:15:13.915Z,0
2019-02-23T03:16:13.913Z,0
2019-02-23T03:17:13.914Z,0
2019-02-23T03:18:13.931Z,0
2019-02-23T03:19:13.848Z,0
2019-02-23T03:20:13.854Z,0
2019-02-23T03:21:13.919Z,0
2019-02-23T03:22:13.850Z,0
2019-02-23T03:23:13.854Z,0
2019-02-23T03:24:13.855Z,0
2019-02-23T03:25:13.865Z,0
2019-02-23T03:26:13.952Z,0
2019-02-23T03:27:13.891Z,0
2019-02-23T03:28:13.886Z,0
2019-02-23T03:29:13.904Z,0
2019-02-23T03:30:13.970Z,0
2019-02-23T03:31:13.858Z,0
2019-02-23T03:32:13.883Z,0
2019-02-23T03:33:13.968Z,0
2019-02-23T03:34:14.162Z,0
2019-02-23T03:35:13.891Z,0
2019-02-23T03:36:13.831Z,0
2019-02-23T03:37:13.961Z,0
2019-02-23T03:38:13.828Z,0
2019-02-23T03:39:13.910Z,0
2019-02-23T03:40:13.961Z,0
2019-02-23T03:41:13.966Z,0
2019-02-23T03:42:13.900Z,0
2019-02-23T03:43:13.934Z,0
2019-02-23T03:44:13.961Z,0
2019-02-23T03:45:13.872Z,0
2019-02-23T03:46:13.879Z,0
2019-02-23T03:47:13.942Z,0
2019-02-23T03:48:13.870Z,0
2019-02-23T03:49:13.873Z,0
2019-02-23T03:50:13.939Z,0
2019-02-23T03:51:13.948Z,0
2019-02-23T03:52:13.879Z,0
2019-02-23T03:53:13.875Z,0
2019-02-23T03:54:13.944Z,0
2019-02-23T03:55:13.882Z,0
2019-02-23T03:56:13.896Z,0
2019-02-23T03:57:13.881Z,0
2019-02-23T03:58:13.953Z,0
2019-02-23T03:59:13.947Z,0
2019-02-23T04:00:13.956Z,0
2019-02-23T04:01:13.946Z,0
2019-02-23T04:02:13.950Z,0
2019-02-23T04:03:13.948Z,0
2019-02-23T04:04:13.962Z,0
2019-02-23T04:05:13.884Z,0
2019-02-23T04:06:13.988Z,0
2019-02-23T04:07:13.977Z,0
2019-02-23T04:08:13.916Z,0
2019-02-23T04:09:13.922Z,0
2019-02-23T04:10:13.863Z,0
2019-02-23T04:11:13.934Z,0
2019-02-23T04:12:13.929Z,0
2019-02-23T04:13:13.891Z,0
2019-02-23T04:14:13.926Z,0
2019-02-23T04:15:13.959Z,0
2019-02-23T04:16:13.926Z,0
2019-02-23T04:17:13.988Z,0
2019-02-23T04:18:13.903Z,0
2019-02-23T04:19:13.859Z,0
2019-02-23T04:20:13.938Z,0
2019-02-23T04:21:13.962Z,0
2019-02-23T04:22:13.914Z,0
2019-02-23T04:23:13.881Z,0
2019-02-23T04:24:13.864Z,0
2019-02-23T04:25:13.904Z,0
2019-02-23T04:26:13.930Z,0
2019-02-23T04:27:13.932Z,0
2019-02-23T04:28:13.944Z,0
2019-02-23T04:29:13.898Z,0
2019-02-23T04:30:13.865Z,0
2019-02-23T04:31:13.838Z,0
2019-02-23T04:32:13.948Z,0
2019-02-23T04:33:13.923Z,0
2019-02-23T04:34:13.895Z,0
2019-02-23T04:35:13.904Z,0
2019-02-23T04:36:13.974Z,0
2019-02-23T04:38:13.912Z,0
2019-02-23T04:39:13.913Z,0
2019-02-23T04:40:13.993Z,0
2019-02-23T04:41:13.975Z,0
2019-02-23T04:42:13.984Z,0
2019-02-23T04:43:13.976Z,0
2019-02-23T04:44:13.915Z,0
2019-02-23T04:45:13.980Z,0
2019-02-23T04:46:13.952Z,0
2019-02-23T04:47:14.009Z,0
2019-02-23T04:48:13.904Z,0
2019-02-23T04:49:13.918Z,0
2019-02-23T04:50:13.964Z,0
2019-02-23T04:51:14.860Z,0
2019-02-23T04:52:13.962Z,0
2019-02-23T04:53:13.916Z,0
2019-02-23T04:54:14.010Z,0
2019-02-23T04:55:13.998Z,0
2019-02-23T04:56:14.049Z,0
2019-02-23T04:57:14.020Z,0
2019-02-23T04:58:13.956Z,0
2019-02-23T04:59:14.037Z,0
2019-02-23T05:00:14.004Z,0
2019-02-23T05:01:13.950Z,0
2019-02-23T05:02:14.008Z,0
2019-02-23T05:03:13.949Z,0
2019-02-23T05:04:13.895Z,0
2019-02-23T05:05:13.960Z,0
2019-02-23T05:06:13.953Z,0
2019-02-23T05:07:13.955Z,0
2019-02-23T05:08:13.972Z,0
2019-02-23T05:09:13.853Z,0
2019-02-23T05:10:13.985Z,0
2019-02-23T05:11:13.977Z,0
2019-02-23T05:12:13.862Z,0
2019-02-23T05:13:13.983Z,0
2019-02-23T05:14:13.900Z,0
2019-02-23T05:15:13.997Z,0
2019-02-23T05:16:14.016Z,0
2019-02-23T05:17:13.963Z,0
2019-02-23T05:18:14.037Z,0
2019-02-23T05:19:13.982Z,0
2019-02-23T05:20:14.002Z,0
2019-02-23T05:21:25.724Z,0
2019-02-23T05:22:13.993Z,0
2019-02-23T05:23:14.028Z,0
2019-02-23T05:24:14.004Z,0
2019-02-23T05:25:13.950Z,0
2019-02-23T05:26:13.910Z,0
2019-02-23T05:27:13.916Z,0
2019-02-23T05:28:13.957Z,0
2019-02-23T05:29:13.996Z,0
2019-02-23T05:30:13.958Z,0
2019-02-23T05:31:13.973Z,0
2019-02-23T05:32:14.018Z,0
2019-02-23T05:33:13.939Z,0
2019-02-23T05:34:13.943Z,0
2019-02-23T05:35:14.010Z,0
2019-02-23T05:36:13.944Z,0
2019-02-23T05:37:14.024Z,0
2019-02-23T05:38:14.020Z,0
2019-02-23T05:39:14.012Z,0
2019-02-23T05:40:13.916Z,0
2019-02-23T05:41:14.015Z,0
2019-02-23T05:42:14.011Z,0
2019-02-23T05:43:14.029Z,0
2019-02-23T05:44:13.948Z,0
2019-02-23T05:45:14.030Z,0
2019-02-23T05:46:14.049Z,0
2019-02-23T05:47:14.099Z,0
2019-02-23T05:48:13.996Z,0
2019-02-23T05:49:13.985Z,0
2019-02-23T05:50:14.035Z,0
2019-02-23T05:51:14.025Z,0
2019-02-23T05:52:14.002Z,0
2019-02-23T05:53:14.037Z,0
2019-02-23T05:54:13.999Z,0
2019-02-23T05:55:14.007Z,0
2019-02-23T05:56:16.339Z,0
2019-02-23T05:57:13.964Z,0
2019-02-23T05:58:14.029Z,0
2019-02-23T05:59:14.057Z,0
2019-02-23T06:00:13.962Z,0
2019-02-23T06:01:14.034Z,0
2019-02-23T06:02:13.970Z,0
2019-02-23T06:03:13.994Z,0
2019-02-23T06:04:13.970Z,0
2019-02-23T06:05:14.040Z,0
2019-02-23T06:06:14.069Z,0
2019-02-23T06:07:14.038Z,0
2019-02-23T06:08:14.069Z,0
2019-02-23T06:09:14.006Z,0
2019-02-23T06:10:14.077Z,0
2019-02-23T06:11:14.015Z,0
2019-02-23T06:12:14.040Z,0
2019-02-23T06:13:14.019Z,0
2019-02-23T06:14:14.021Z,0
2019-02-23T06:15:14.041Z,0
2019-02-23T06:16:14.016Z,0
2019-02-23T06:17:14.059Z,0
2019-02-23T06:18:14.068Z,0
2019-02-23T06:19:13.941Z,0
2019-02-23T06:20:13.991Z,0
2019-02-23T06:21:14.012Z,0
2019-02-23T06:22:14.045Z,0
2019-02-23T06:23:14.045Z,0
2019-02-23T06:24:14.112Z,0
2019-02-23T06:25:14.055Z,0
2019-02-23T06:26:14.073Z,0
2019-02-23T06:27:14.064Z,0
2019-02-23T06:28:14.075Z,0
2019-02-23T06:29:14.010Z,0
2019-02-23T06:30:13.957Z,1332
2019-02-23T06:31:13.951Z,1448
2019-02-23T06:32:14.091Z,1564
2019-02-23T06:33:14.075Z,1696
2019-02-23T06:34:16.434Z,1832
2019-02-23T06:35:14.017Z,1968
2019-02-23T06:36:14.005Z,2124
2019-02-23T06:37:13.963Z,2284
2019-02-23T06:38:13.966Z,2456
2019-02-23T06:39:14.050Z,2628
2019-02-23T06:40:13.958Z,2816
2019-02-23T06:41:14.055Z,3012
2019-02-23T06:42:14.019Z,3212
2019-02-23T06:43:13.961Z,3424
2019-02-23T06:44:14.048Z,3648
2019-02-23T06:45:13.988Z,3880
2019-02-23T06:46:13.990Z,4120
2019-02-23T06:47:14.076Z,4364
2019-02-23T06:48:14.000Z,4616
2019-02-23T06:49:14.064Z,4868
2019-02-23T06:50:13.997Z,5116
2019-02-23T06:51:14.003Z,5360
2019-02-23T06:52:14.076Z,5616
2019-02-23T06:53:13.998Z,5868
2019-02-23T06:54:14.072Z,6148
2019-02-23T06:55:14.017Z,6432
2019-02-23T06:56:14.068Z,6740
2019-02-23T06:57:14.035Z,7088
2019-02-23T06:58:13.966Z,7452
2019-02-23T06:59:14.056Z,7820
2019-02-23T07:00:13.951Z,8196
2019-02-23T07:01:14.036Z,8588
2019-02-23T07:02:14.019Z,8988
2019-02-23T07:03:14.036Z,9396
2019-02-23T07:04:13.977Z,9720
2019-02-23T07:05:14.062Z,9984
2019-02-23T07:06:14.087Z,10176
2019-02-23T07:07:14.019Z,10420
2019-02-23T07:08:14.103Z,10736
2019-02-23T07:09:14.090Z,11000
2019-02-23T07:10:14.058Z,11208
2019-02-23T07:11:14.088Z,11464
2019-02-23T07:12:14.050Z,11868
2019-02-23T07:13:14.024Z,12248
2019-02-23T07:14:14.092Z,12636
2019-02-23T07:15:14.034Z,13052
2019-02-23T07:16:13.986Z,13396
2019-02-23T07:17:14.103Z,13740
2019-02-23T07:18:14.038Z,14068
2019-02-23T07:19:14.086Z,14488
2019-02-23T07:20:14.125Z,14908
2019-02-23T07:21:14.063Z,15204
2019-02-23T07:22:15.836Z,15520
2019-02-23T07:23:13.991Z,15652
2019-02-23T07:24:14.117Z,15920
2019-02-23T07:25:14.084Z,16320
2019-02-23T07:26:14.124Z,16480
2019-02-23T07:27:14.101Z,16716
2019-02-23T07:28:14.119Z,17144
2019-02-23T07:29:14.071Z,17836
2019-02-23T07:30:14.047Z,18404
2019-02-23T07:31:14.045Z,18752
2019-02-23T07:32:14.061Z,19184
2019-02-23T07:33:14.047Z,19656
2019-02-23T07:34:14.035Z,19800
2019-02-23T07:35:14.062Z,20408
2019-02-23T07:36:14.110Z,21088
2019-02-23T07:37:14.129Z,21216
2019-02-23T07:38:14.119Z,21376
2019-02-23T07:39:14.039Z,21728
2019-02-23T07:40:14.056Z,22272
2019-02-23T07:41:14.115Z,22848
2019-02-23T07:42:14.120Z,23712
2019-02-23T07:43:14.118Z,24608
2019-02-23T07:44:14.045Z,25568
2019-02-23T07:45:14.041Z,26304
2019-02-23T07:46:14.045Z,27232
2019-02-23T07:47:14.063Z,27840
2019-02-23T07:48:14.005Z,28256
2019-02-23T07:49:14.052Z,28288
2019-02-23T07:50:14.071Z,28192
2019-02-23T07:51:14.051Z,28512
2019-02-23T07:52:14.037Z,28768
2019-02-23T07:53:14.068Z,28800
2019-02-23T07:54:14.045Z,29472
2019-02-23T07:55:14.001Z,29888
2019-02-23T07:56:14.062Z,30144
2019-02-23T07:57:14.044Z,30112
2019-02-23T07:58:14.037Z,30368
2019-02-23T07:59:14.042Z,30336
2019-02-23T08:00:14.039Z,30432
2019-02-23T08:01:14.209Z,30816
2019-02-23T08:02:14.113Z,31104
2019-02-23T08:03:14.039Z,31488
2019-02-23T08:04:14.061Z,32320
2019-02-23T08:05:14.135Z,32736
2019-02-23T08:06:14.061Z,32416
2019-02-23T08:07:14.119Z,32128
2019-02-23T08:08:14.120Z,32160
2019-02-23T08:09:14.045Z,32608
2019-02-23T08:10:14.121Z,33472
2019-02-23T08:11:14.059Z,33568
2019-02-23T08:12:14.121Z,33984
2019-02-23T08:13:14.048Z,34560
2019-02-23T08:14:14.124Z,35456
2019-02-23T08:15:14.048Z,35680
2019-02-23T08:16:14.130Z,36480
2019-02-23T08:17:14.051Z,36896
2019-02-23T08:18:14.056Z,36992
2019-02-23T08:19:14.034Z,37216
2019-02-23T08:20:14.140Z,38016
2019-02-23T08:21:14.059Z,37888
2019-02-23T08:22:14.150Z,38208
2019-02-23T08:23:14.131Z,38016
2019-02-23T08:24:14.066Z,38272
2019-02-23T08:25:14.132Z,39008
2019-02-23T08:26:14.127Z,39232
2019-02-23T08:27:14.131Z,40160
2019-02-23T08:28:14.057Z,40224
2019-02-23T08:29:14.076Z,39872
2019-02-23T08:30:14.136Z,40384
2019-02-23T08:31:14.063Z,40928
2019-02-23T08:32:14.141Z,41280
2019-02-23T08:33:14.072Z,41856
2019-02-23T08:34:14.138Z,41504
2019-02-23T08:35:14.074Z,41568
2019-02-23T08:36:14.065Z,41312
2019-02-23T08:37:14.159Z,41600
2019-02-23T08:38:14.078Z,42080
2019-02-23T08:39:14.089Z,41120
2019-02-23T08:40:14.157Z,39904
2019-02-23T08:41:14.110Z,38880
2019-02-23T08:42:14.162Z,38816
2019-02-23T08:43:14.133Z,39552
2019-02-23T08:44:14.210Z,39296
2019-02-23T08:45:14.156Z,41856
2019-02-23T08:46:14.116Z,42464
2019-02-23T08:47:14.091Z,43616
2019-02-23T08:48:14.146Z,45152
2019-02-23T08:49:14.155Z,47008
2019-02-23T08:50:14.078Z,46432
2019-02-23T08:51:14.151Z,44800
2019-02-23T08:52:14.091Z,45408
2019-02-23T08:53:14.086Z,46240
2019-02-23T08:54:14.154Z,47456
2019-02-23T08:55:14.089Z,49024
2019-02-23T08:56:14.159Z,50336
2019-02-23T08:57:14.172Z,53568
2019-02-23T08:58:14.175Z,53088
2019-02-23T08:59:14.156Z,54752
2019-02-23T09:00:14.169Z,54400
2019-02-23T09:01:14.158Z,55264
2019-02-23T09:02:14.092Z,56992
2019-02-23T09:03:14.058Z,58944
2019-02-23T09:04:14.178Z,59296
2019-02-23T09:05:14.103Z,60864
2019-02-23T09:06:14.167Z,63264
2019-02-23T09:07:14.051Z,63808
2019-02-23T09:08:14.120Z,64352
2019-02-23T09:09:14.058Z,62336
2019-02-23T09:10:14.125Z,60096
2019-02-23T09:11:14.030Z,59488
2019-02-23T09:12:14.128Z,59456
2019-02-23T09:13:14.139Z,59712
2019-02-23T09:14:14.131Z,61792
2019-02-23T09:15:14.094Z,61632
2019-02-23T09:16:14.056Z,61440
2019-02-23T09:17:14.126Z,63456
2019-02-23T09:18:14.108Z,63520
2019-02-23T09:19:14.123Z,63584
2019-02-23T09:20:14.110Z,62208
2019-02-23T09:21:14.106Z,58688
2019-02-23T09:22:14.114Z,61536
2019-02-23T09:23:14.111Z,60288
2019-02-23T09:24:14.110Z,58016
2019-02-23T09:25:14.141Z,59776
2019-02-23T09:26:14.125Z,61888
2019-02-23T09:27:14.115Z,64416
2019-02-23T09:28:14.236Z,64800
2019-02-23T09:29:14.152Z,69408
2019-02-23T09:30:14.193Z,71488
2019-02-23T09:31:14.117Z,72992
2019-02-23T09:32:14.187Z,73408
2019-02-23T09:33:14.187Z,73728
2019-02-23T09:34:14.133Z,72288
2019-02-23T09:35:14.193Z,72192
2019-02-23T09:36:14.122Z,74688
2019-02-23T09:37:14.192Z,76288
2019-02-23T09:38:14.177Z,75360
2019-02-23T09:39:14.197Z,74944
2019-02-23T09:40:14.142Z,74912
2019-02-23T09:41:14.198Z,74688
2019-02-23T09:42:14.131Z,74272
2019-02-23T09:43:14.128Z,73248
2019-02-23T09:44:14.143Z,73440
2019-02-23T09:45:14.199Z,74816
2019-02-23T09:46:14.202Z,75232
2019-02-23T09:47:14.122Z,75744
2019-02-23T09:48:14.114Z,77888
2019-02-23T09:49:14.084Z,79296
2019-02-23T09:50:14.138Z,79872
2019-02-23T09:51:14.167Z,78848
2019-02-23T09:52:14.140Z,79488
2019-02-23T09:53:14.066Z,78496
2019-02-23T09:54:14.106Z,80064
2019-02-23T09:55:14.177Z,81856
2019-02-23T09:56:14.065Z,80032
2019-02-23T09:57:14.204Z,80640
2019-02-23T09:58:14.160Z,80064
2019-02-23T09:59:14.135Z,79200
2019-02-23T10:00:14.157Z,81024
2019-02-23T10:01:14.137Z,79968
2019-02-23T10:02:14.137Z,79040
2019-02-23T10:03:14.220Z,75072
2019-02-23T10:04:14.174Z,78720
2019-02-23T10:05:14.221Z,81408
2019-02-23T10:06:14.211Z,64128
2019-02-23T10:07:14.129Z,72448
2019-02-23T10:08:14.143Z,70336
2019-02-23T10:09:14.069Z,67520
2019-02-23T10:10:14.228Z,61600
2019-02-23T10:11:14.187Z,62176
2019-02-23T10:12:14.076Z,61536
2019-02-23T10:13:14.215Z,63776
2019-02-23T10:14:14.138Z,64480
2019-02-23T10:15:14.186Z,64160
2019-02-23T10:16:14.169Z,67744
2019-02-23T10:17:14.197Z,67488
2019-02-23T10:18:14.167Z,66944
2019-02-23T10:19:14.176Z,64608
2019-02-23T10:20:14.193Z,64192
2019-02-23T10:21:14.120Z,63744
2019-02-23T10:22:14.142Z,68096
2019-02-23T10:23:21.594Z,66848
2019-02-23T10:24:14.211Z,67936
2019-02-23T10:25:14.094Z,70080
2019-02-23T10:26:14.101Z,70080
2019-02-23T10:27:14.230Z,55392
2019-02-23T10:28:14.168Z,50112
2019-02-23T10:29:14.175Z,49216
2019-02-23T10:30:14.157Z,51136
2019-02-23T10:31:14.221Z,56064
2019-02-23T10:32:14.228Z,61312
2019-02-23T10:33:14.229Z,69088
2019-02-23T10:34:14.165Z,67136
2019-02-23T10:35:14.235Z,54784
2019-02-23T10:36:14.242Z,60448
2019-02-23T10:37:14.157Z,59072
2019-02-23T10:38:14.146Z,52736
2019-02-23T10:39:14.162Z,63872
2019-02-23T10:40:14.152Z,62400
2019-02-23T10:41:14.229Z,71456
2019-02-23T10:42:14.151Z,68704
2019-02-23T10:43:14.157Z,74368
2019-02-23T10:44:14.234Z,62592
2019-02-23T10:45:14.157Z,73568
2019-02-23T10:46:14.234Z,73152
2019-02-23T10:47:14.168Z,67200
2019-02-23T10:48:14.240Z,66880
2019-02-23T10:49:14.186Z,62560
2019-02-23T10:50:14.239Z,65824
2019-02-23T10:51:14.245Z,69920
2019-02-23T10:52:14.179Z,71200
2019-02-23T10:53:14.245Z,71840
2019-02-23T10:54:14.250Z,70144
2019-02-23T10:55:14.248Z,69664
2019-02-23T10:56:14.141Z,70016
2019-02-23T10:57:14.257Z,70720
2019-02-23T10:58:14.253Z,71328
2019-02-23T10:59:14.239Z,66176
2019-02-23T11:00:14.258Z,62784
2019-02-23T11:01:14.255Z,65440
2019-02-23T11:02:14.228Z,64672
2019-02-23T11:03:14.183Z,69600
2019-02-23T11:04:14.142Z,72000
2019-02-23T11:05:14.253Z,73600
2019-02-23T11:06:14.260Z,74528
2019-02-23T11:07:14.324Z,73248
2019-02-23T11:08:14.255Z,73952
2019-02-23T11:09:14.261Z,73888
2019-02-23T11:10:14.268Z,77184
2019-02-23T11:11:14.260Z,80832
2019-02-23T11:12:14.274Z,82048
2019-02-23T11:13:14.193Z,71904
2019-02-23T11:14:14.263Z,68384
2019-02-23T11:15:14.268Z,65120
2019-02-23T11:16:14.193Z,69728
2019-02-23T11:17:14.265Z,68608
2019-02-23T11:18:14.263Z,76672
2019-02-23T11:19:14.262Z,76512
2019-02-23T11:20:14.218Z,77760
2019-02-23T11:21:14.193Z,78336
2019-02-23T11:22:14.208Z,73504
2019-02-23T11:23:14.276Z,82752
2019-02-23T11:24:14.223Z,88736
2019-02-23T11:25:14.208Z,87104
2019-02-23T11:26:14.220Z,86432
2019-02-23T11:27:14.267Z,89472
2019-02-23T11:28:14.279Z,92288
2019-02-23T11:29:14.294Z,94400
2019-02-23T11:30:14.207Z,89696
2019-02-23T11:31:14.206Z,87264
2019-02-23T11:32:14.288Z,83488
2019-02-23T11:33:14.220Z,81728
2019-02-23T11:34:14.203Z,77312
2019-02-23T11:35:14.215Z,77664
2019-02-23T11:36:14.206Z,78080
2019-02-23T11:37:14.193Z,75872
2019-02-23T11:38:14.229Z,73536
2019-02-23T11:39:14.195Z,65792
2019-02-23T11:40:14.193Z,64608
2019-02-23T11:41:14.197Z,62080
2019-02-23T11:42:14.426Z,64864
2019-02-23T11:43:14.271Z,62976
2019-02-23T11:44:14.199Z,64448
2019-02-23T11:45:14.199Z,67328
2019-02-23T11:46:14.165Z,69664
2019-02-23T11:47:14.300Z,70080
2019-02-23T11:48:14.223Z,73792
2019-02-23T11:49:14.231Z,71680
2019-02-23T11:50:14.221Z,76288
2019-02-23T11:51:14.237Z,79872
2019-02-23T11:52:14.289Z,81376
2019-02-23T11:53:14.289Z,86688
2019-02-23T11:54:14.181Z,82976
2019-02-23T11:55:14.219Z,91904
2019-02-23T11:56:14.238Z,91232
2019-02-23T11:57:14.218Z,91456
2019-02-23T11:58:14.293Z,86080
2019-02-23T11:59:14.259Z,83296
2019-02-23T12:00:14.302Z,81664
2019-02-23T12:01:14.292Z,78624
2019-02-23T12:02:14.298Z,77568
2019-02-23T12:03:14.282Z,78624
2019-02-23T12:04:14.228Z,77600
2019-02-23T12:05:14.258Z,76704
2019-02-23T12:06:14.300Z,75424
2019-02-23T12:07:14.166Z,74112
2019-02-23T12:08:14.287Z,75840
2019-02-23T12:09:14.289Z,73696
2019-02-23T12:10:14.168Z,74432
2019-02-23T12:11:14.242Z,74304
2019-02-23T12:12:14.277Z,72864
2019-02-23T12:13:14.290Z,70528
2019-02-23T12:14:14.293Z,68256
2019-02-23T12:15:14.194Z,73024
2019-02-23T12:16:14.296Z,71104
2019-02-23T12:17:14.225Z,74656
2019-02-23T12:18:14.195Z,77568
2019-02-23T12:19:14.263Z,78432
2019-02-23T12:20:14.222Z,79424
2019-02-23T12:21:14.185Z,77856
2019-02-23T12:22:14.168Z,80000
2019-02-23T12:23:14.230Z,78688
2019-02-23T12:24:14.283Z,71328
2019-02-23T12:25:16.233Z,68128
2019-02-23T12:26:14.237Z,70528
2019-02-23T12:27:14.240Z,73664
2019-02-23T12:28:14.313Z,72576
2019-02-23T12:29:14.316Z,85408
2019-02-23T12:30:14.318Z,78336
2019-02-23T12:31:14.317Z,75136
2019-02-23T12:32:14.206Z,76448
2019-02-23T12:33:14.247Z,84736
2019-02-23T12:34:14.260Z,81472
2019-02-23T12:35:14.271Z,76384
2019-02-23T12:36:14.261Z,75936
2019-02-23T12:37:14.249Z,69632
2019-02-23T12:38:14.247Z,70048
2019-02-23T12:39:14.319Z,68832
2019-02-23T12:40:14.320Z,70400
2019-02-23T12:41:14.324Z,70272
2019-02-23T12:42:14.336Z,70176
2019-02-23T12:43:14.327Z,72064
2019-02-23T12:44:14.261Z,70784
2019-02-23T12:45:14.326Z,69824
2019-02-23T12:46:14.325Z,69056
2019-02-23T12:47:14.196Z,73248
2019-02-23T12:48:14.318Z,72800
2019-02-23T12:49:14.244Z,74560
2019-02-23T12:50:14.323Z,75104
2019-02-23T12:51:14.242Z,74208
2019-02-23T12:52:14.243Z,74208
2019-02-23T12:53:14.321Z,70432
2019-02-23T12:54:16.857Z,67840
2019-02-23T12:55:14.323Z,69568
2019-02-23T12:56:14.323Z,69888
2019-02-23T12:57:14.252Z,67968
2019-02-23T12:58:14.258Z,66848
2019-02-23T12:59:14.322Z,64928
2019-02-23T13:00:14.259Z,62688
2019-02-23T13:01:14.254Z,57856
2019-02-23T13:02:14.262Z,57696
2019-02-23T13:03:14.272Z,59296
2019-02-23T13:04:14.258Z,61088
2019-02-23T13:06:14.330Z,59296
2019-02-23T13:07:14.329Z,54752
2019-02-23T13:08:14.350Z,54720
2019-02-23T13:09:14.338Z,50976
2019-02-23T13:10:14.346Z,49952
2019-02-23T13:11:14.273Z,57152
2019-02-23T13:12:14.352Z,61152
2019-02-23T13:13:14.358Z,61504
2019-02-23T13:14:14.354Z,65024
2019-02-23T13:15:14.344Z,64864
2019-02-23T13:16:14.272Z,62528
2019-02-23T13:17:14.337Z,61120
2019-02-23T13:18:14.152Z,60448
2019-02-23T13:19:14.272Z,64960
2019-02-23T13:20:14.265Z,69024
2019-02-23T13:21:14.264Z,71072
2019-02-23T13:22:14.198Z,73440
2019-02-23T13:23:14.198Z,72704
2019-02-23T13:24:14.171Z,60608
2019-02-23T13:25:14.215Z,58112
2019-02-23T13:26:14.221Z,57888
2019-02-23T13:27:14.280Z,50720
2019-02-23T13:28:14.352Z,59168
2019-02-23T13:29:14.284Z,59200
2019-02-23T13:30:14.281Z,56352
2019-02-23T13:31:15.011Z,57696
2019-02-23T13:32:14.358Z,56544
2019-02-23T13:33:14.355Z,56256
2019-02-23T13:34:14.293Z,56768
2019-02-23T13:35:14.363Z,59296
2019-02-23T13:36:14.303Z,66048
2019-02-23T13:37:14.373Z,65984
2019-02-23T13:38:14.365Z,64576
2019-02-23T13:39:14.303Z,60864
2019-02-23T13:40:14.290Z,56064
2019-02-23T13:41:14.299Z,55680
2019-02-23T13:42:14.291Z,61216
2019-02-23T13:43:14.294Z,63776
2019-02-23T13:44:14.318Z,67488
2019-02-23T13:45:14.384Z,66944
2019-02-23T13:46:14.359Z,64704